KDAB/DAB METAR and TAF weather

Enter ICAO airport designator
Station Type Date Time Source
KDAB METAR 2020/02/20 23:53 UTC NOAA

KDAB 202353Z 01013KT 5SM BR BKN006 OVC042 16/16 A3002 RMK AO2 RAE17 SLP165 P0004 60004 T01610156 10250 20161 53004


Station Type Date Time Source
KDAB Decoded METAR 2020/02/20 23:53 UTC NOAA

DAYTONA BEACH INTERNATIONAL, FL, United States (KDAB) 29-10N 81-04W 9M
Feb 20, 2020 - 06:53 PM EST / 2020.02.20 2353 UTC
Wind: from the N (010 degrees) at 15 MPH (13 KT):0
Visibility: 5 mile(s):0
Sky conditions: overcast
Weather: mist
Precipitation last hour: 0.04 inches
Temperature: 61.0 F (16.1 C)
Dew Point: 60.1 F (15.6 C)
Relative Humidity: 96%
Pressure (altimeter): 30.02 in. Hg (1016 hPa)
Pressure tendency: 0.01 inches (0.4 hPa) higher than three hours ago
ob: KDAB 202353Z 01013KT 5SM BR BKN006 OVC042 16/16 A3002 RMK AO2 RAE17 SLP165 P0004 60004 T01610156 10250 20161 53004
cycle: 0

Station Type Date Time Source
KDAB TAF 2020/02/20 19:18 UTC NOAA

TAF
AMD KDAB 201910Z 2019/2118 04007KT P6SM SCT024 BKN030 BKN040
FM202300 32010KT P6SM SCT010 BKN040
FM210200 35013KT P6SM VCSH OVC006
FM211000 36012G19KT P6SM VCSH BKN004
FM211600 36020G28KT P6SM BKN020

Example: see airport list